logo
Search for airport 
image banner adimage banner adimage banner ad
image banner ad

SWGI - Gurupi

Located in Gurupi, Brazil

ICAO - SWGI, IATA - GRP

Data provided by Airmate  

General information

Coordinates: S11°44'22" W49°7'60"
Elevation is 1148 feet MSL.
Magnetic variation is -21.433333333° East
View others Airports in Tocatins

Operational data

Special qualification required
Current time UTC:
Current local time:
Weather at : - ( 0 km )
METAR: UUOK 172057Z AUTO 23004MPS 9999 // ///008/// 19/18 Q1009 RMK QFE739/0986
View NOTAMs / SUP AIP / TFR affecting this airport [VIEW]
Communications frequencies: [VIEW]

Runways:

RWY identifierQFULength (ft)Width (ft)SurfaceLDA (ft)
126070492ASPH
306070492ASPH

Airport contact information

Address: Gurupi Brazil

Satellite view of SWGI